AES weather

El Socorro Airport
Hermosillo, Sonora, Mexico

Public forecast

Using degrees Celsius for public forecast. Weather courtesy of forecast.io.

Closest aviation weather report (METAR) to El Socorro Airport

Closest report is General Ignacio P. Garcia International Airport, 13.8 nm (25.6 km) NE. Retrieved 2020/01/29 14:40 UTC (0 seconds ago):

MMHO 291440Z 08005KT 10SM SKC 10/04 A2993 RMK SLP142 52001 991 HZY

Closest aviation forecast (TAF) to El Socorro Airport

Forecast is more than 12 hours old.

Closest forecast is General Ignacio P. Garcia International Airport, 13.8 nm (25.6 km) NE. Retrieved 2020/01/28 18:00 UTC (20 hours ago):

TAF MMHO 281656Z 2818/2918 34015KT P6SM SKC BECMG 2902/2903 00000KT FM291600 00000KT P6SM SKC